Flight Track Log - Related Links

Times and Time Zones

All times are in EDT time to prevent confusion due to time zone crossing. See the N850FD flight status page for this flight to view local times or setup timezone preferences in your user account.

Time Position Orientation Groundspeed Altitude Reporting Facility
EDT Latitude Longitude Course Direction KTS MPH feet Rate Location/Type
Fri 11:32:17 AM 31.3110 121.7350 354° North 295 339 4,400  Level FlightAware ADS-B
Fri 11:32:47 AM 31.3470 121.7540 24° Northeast 292 336 5,400 1,958 Climbing FlightAware ADS-B
Fri 11:33:52 AM 31.3750 121.8580 72° East 325 374 7,500 1,920 Climbing FlightAware ADS-B
Fri 11:34:27 AM 31.4000 121.9110 61° Northeast 338 389 8,600 1,900 Climbing FlightAware ADS-B
Fri 11:34:52 AM 31.4180 121.9460 59° Northeast 349 402 9,400 800 Climbing FlightAware ADS-B
Fri 11:35:27 AM 31.4430 121.9950 59° Northeast 349 402 9,400 1,520 Level FlightAware ADS-B
Fri 11:36:07 AM 31.4870 122.0850 60° Northeast 402 463 11,300 2,463 Climbing FlightAware ADS-B
Fri 11:37:02 AM 31.5400 122.1940 60° Northeast 422 486 13,300 2,100 Climbing FlightAware ADS-B
Fri 11:37:47 AM 31.5830 122.2830 60° Northeast 433 498 14,800 1,694 Climbing FlightAware ADS-B
Fri 11:38:27 AM 31.6200 122.3680 63° Northeast 443 510 15,700 635 Climbing FlightAware ADS-B
Fri 11:39:12 AM 31.6390 122.4650 77° East 442 509 15,700  Level FlightAware ADS-B
Fri 11:40:27 AM 31.6610 122.6390 82° East 443 510 15,700 40 Level FlightAware ADS-B
Fri 11:41:42 AM 31.6840 122.8200 81° East 445 512 15,800 831 Climbing FlightAware ADS-B
Fri 11:42:37 AM 31.7020 122.9510 81° East 452 520 17,500 1,074 Climbing FlightAware ADS-B
Fri 11:43:17 AM 31.7130 123.0330 81° East 452 520 17,500  Level FlightAware ADS-B
Fri 11:43:57 AM 31.7240 123.1160 81° East 452 520 17,500  Level FlightAware ADS-B
Fri 11:44:47 AM 31.7380 123.2190 81° East 452 520 17,500  Level FlightAware ADS-B
Fri 11:45:27 AM 31.7490 123.3020 81° East 452 520 17,500  Level FlightAware ADS-B
Fri 11:46:07 AM 31.7600 123.3840 81° East 452 520 17,500 3,650 Level FlightAware ADS-B
Fri 11:47:27 AM 31.6980 123.7290 102° East 521 600 24,800 3,369 Climbing FlightAware ADS-B
Fri 11:48:17 AM 31.6630 123.8420 110° East 521 600 24,800  Level FlightAware ADS-B
Fri 11:48:57 AM 31.6350 123.9330 110° East 521 600 24,800  Level FlightAware ADS-B
Fri 11:49:37 AM 31.6070 124.0230 110° East 521 600 24,800  Level FlightAware ADS-B
Fri 11:50:17 AM 31.5790 124.1140 110° East 521 600 24,800  Level FlightAware ADS-B
Fri 11:50:57 AM 31.5510 124.2040 110° East 521 600 24,800 226 Level FlightAware ADS-B
Fri 11:53:00 AM 31.7839 124.3534 75° East  Level Estimated
Fri 11:54:00 AM 31.7961 124.5050 85° East  Level FlightAware Approximate
Fri 11:55:00 AM 31.8081 124.6566 85° East  Level FlightAware Approximate
Fri 11:56:00 AM 31.8199 124.8083 85° East  Level FlightAware Approximate
Fri 11:57:00 AM 31.9331 124.8823 75° East  Level Estimated
Fri 11:58:00 AM 31.9579 125.0320 79° East  Level FlightAware Approximate
Fri 11:59:00 AM 31.9825 125.1817 79° East  Level FlightAware Approximate
Fri 12:00:00 PM 32.0070 125.3316 79° East  Level FlightAware Approximate
Fri 12:01:00 PM 32.0313 125.4816 79° East  Level FlightAware Approximate
Fri 12:02:00 PM 32.0554 125.6316 79° East  Level FlightAware Approximate
Fri 12:03:00 PM 32.0794 125.7817 79° East  Level FlightAware Approximate
Fri 12:04:00 PM 32.1031 125.9318 79° East  Level FlightAware Approximate
Fri 12:05:00 PM 32.1267 126.0821 79° East  Level FlightAware Approximate
Fri 12:06:00 PM 32.1501 126.2324 80° East  Level FlightAware Approximate
Fri 12:07:00 PM 32.1734 126.3828 80° East  Level FlightAware Approximate
Fri 12:08:00 PM 32.2853 126.4596 75° East  Level Estimated
Fri 12:09:00 PM 32.3110 126.6097 79° East  Level FlightAware Approximate
Fri 12:10:00 PM 32.3365 126.7599 79° East  Level FlightAware Approximate
Fri 12:11:00 PM 32.3618 126.9101 79° East  Level FlightAware Approximate
Fri 12:12:00 PM 32.3870 127.0604 79° East  Level FlightAware Approximate
Fri 12:13:00 PM 32.4120 127.2109 79° East  Level FlightAware Approximate
Fri 12:14:00 PM 32.4368 127.3613 79° East  Level FlightAware Approximate
Fri 12:15:00 PM 32.4614 127.5119 79° East  Level FlightAware Approximate
Fri 12:16:00 PM 32.4858 127.6626 79° East  Level FlightAware Approximate
Fri 12:17:00 PM 32.5101 127.8133 79° East  Level FlightAware Approximate
Fri 12:17:42 PM 32.8220 128.7690 79° East 540 621 31,000  Level FlightAware ADS-B
Fri 12:18:22 PM 32.8540 128.8810 71° East 540 621 31,000  Level FlightAware ADS-B
Fri 12:19:02 PM 32.8870 128.9950 71° East 542 624 31,000  Level FlightAware ADS-B
Fri 12:19:47 PM 32.9230 129.1210 71° East 542 624 31,000  Level FlightAware ADS-B
Fri 12:20:27 PM 32.9560 129.2340 71° East 543 625 31,000  Level FlightAware ADS-B
Fri 12:21:07 PM 32.9880 129.3470 71° East 543 625 31,000  Level FlightAware ADS-B
Fri 12:21:52 PM 33.0240 129.4740 71° East 545 627 31,000  Level FlightAware ADS-B
Fri 12:22:32 PM 33.0550 129.5840 71° East 544 626 31,000  Level FlightAware ADS-B
Fri 12:23:17 PM 33.0930 129.7170 71° East 543 625 31,000  Level FlightAware ADS-B
Fri 12:23:57 PM 33.1220 129.8210 72° East 543 625 31,000  Level FlightAware ADS-B
Fri 12:24:42 PM 33.1600 129.9580 72° East 542 624 31,000  Level FlightAware ADS-B
Fri 12:25:22 PM 33.1920 130.0720 71° East 542 624 31,000  Level FlightAware ADS-B
Fri 12:26:02 PM 33.2220 130.1820 72° East 542 624 31,000  Level FlightAware ADS-B
Fri 12:26:47 PM 33.2590 130.3140 71° East 542 624 31,000  Level FlightAware ADS-B
Fri 12:27:27 PM 33.2900 130.4280 72° East 542 624 31,000  Level FlightAware ADS-B
Fri 12:28:07 PM 33.3210 130.5420 72° East 542 624 31,000  Level FlightAware ADS-B
Fri 12:28:52 PM 33.3560 130.6700 72° East 542 624 31,000  Level FlightAware ADS-B
Fri 12:29:32 PM 33.3870 130.7850 72° East 544 626 31,000  Level FlightAware ADS-B
Fri 12:30:17 PM 33.4210 130.9120 72° East 545 627 31,000  Level FlightAware ADS-B
Fri 12:30:57 PM 33.4530 131.0280 72° East 544 626 31,000  Level FlightAware ADS-B
Fri 12:31:37 PM 33.4830 131.1410 72° East 545 627 31,000  Level FlightAware ADS-B
Fri 12:32:22 PM 33.5160 131.2660 72° East 546 628 31,000  Level FlightAware ADS-B
Fri 12:33:02 PM 33.5480 131.3850 72° East 546 628 31,000  Level FlightAware ADS-B
Fri 12:33:47 PM 33.5820 131.5140 72° East 546 628 31,000  Level FlightAware ADS-B
Fri 12:34:27 PM 33.6130 131.6340 73° East 546 628 31,000  Level FlightAware ADS-B
Fri 12:35:07 PM 33.6430 131.7480 72° East 549 632 31,000  Level FlightAware ADS-B
Fri 12:35:52 PM 33.6770 131.8790 73° East 551 634 31,000  Level FlightAware ADS-B
Fri 12:36:32 PM 33.7080 131.9990 73° East 553 636 31,000  Level FlightAware ADS-B
Fri 12:37:17 PM 33.7420 132.1300 73° East 555 639 31,000  Level FlightAware ADS-B
Fri 12:37:57 PM 33.7720 132.2470 73° East 555 639 31,000  Level FlightAware ADS-B
Fri 12:38:37 PM 33.8030 132.3650 72° East 556 640 31,000  Level FlightAware ADS-B
Fri 12:39:22 PM 33.8370 132.4990 73° East 555 639 31,000  Level FlightAware ADS-B
Fri 12:40:02 PM 33.8670 132.6170 73° East 553 636 31,000  Level FlightAware ADS-B
Fri 12:40:47 PM 33.9000 132.7480 73° East 554 638 31,000  Level FlightAware ADS-B
Fri 12:41:27 PM 33.9290 132.8670 74° East 556 640 31,000  Level FlightAware ADS-B
Fri 12:42:07 PM 33.9590 132.9860 73° East 555 639 31,000  Level FlightAware ADS-B
Fri 12:42:52 PM 33.9920 133.1180 73° East 556 640 31,000  Level FlightAware ADS-B
Fri 12:43:32 PM 34.0210 133.2370 74° East 555 639 31,000  Level FlightAware ADS-B
Fri 12:44:17 PM 34.0550 133.3710 73° East 557 641 31,000  Level FlightAware ADS-B
Fri 12:44:57 PM 34.0830 133.4880 74° East 556 640 31,000  Level FlightAware ADS-B
Fri 12:45:42 PM 34.1150 133.6200 74° East 555 639 31,000  Level FlightAware ADS-B
Fri 12:46:22 PM 34.1450 133.7420 73° East 554 638 31,000  Level FlightAware ADS-B
Fri 12:47:02 PM 34.1720 133.8560 74° East 551 634 31,000  Level FlightAware ADS-B
Fri 12:47:47 PM 34.2040 133.9860 73° East 554 638 31,000  Level FlightAware ADS-B
Fri 12:50:00 PM 34.2648 134.3289 76° East  Level FlightAware Approximate
Fri 12:50:22 PM 34.3010 134.4680 76° East 562 647 31,000  Level FlightAware ADS-B
Fri 12:51:02 PM 34.3250 134.5900 77° East 563 648 31,000  Level FlightAware ADS-B
Fri 12:51:42 PM 34.3490 134.7100 76° East 564 649 31,000  Level FlightAware ADS-B
Fri 12:52:27 PM 34.3740 134.8370 77° East 565 650 31,000  Level FlightAware ADS-B
Fri 12:53:02 PM 34.3970 134.9510 76° East 564 649 31,000  Level FlightAware ADS-B
Fri 12:54:02 PM 34.4470 135.1200 70° East 559 643 31,000  Level FlightAware ADS-B
Fri 12:55:27 PM 34.5230 135.3730 70° East 560 644 31,000  Level FlightAware ADS-B
Fri 12:56:22 PM 34.5720 135.5370 70° East 559 643 31,000  Level FlightAware ADS-B
Fri 12:57:47 PM 34.6480 135.7800 69° East 558 642 31,000  Level FlightAware ADS-B
Fri 12:58:32 PM 34.6910 135.9200 69° East 557 641 31,000  Level FlightAware ADS-B
Fri 12:59:12 PM 34.7260 136.0350 70° East 558 642 31,000  Level FlightAware ADS-B
Fri 12:59:52 PM 34.7620 136.1540 70° East 557 641 31,000  Level FlightAware ADS-B
Fri 01:00:32 PM 34.7970 136.2680 69° East 558 642 31,000  Level FlightAware ADS-B
Fri 01:01:17 PM 34.8340 136.3920 70° East 559 643 31,000  Level FlightAware ADS-B
Fri 01:01:57 PM 34.8740 136.5240 70° East 561 646 31,000  Level FlightAware ADS-B
Fri 01:02:37 PM 34.9080 136.6390 70° East 561 646 31,000  Level FlightAware ADS-B
Fri 01:03:17 PM 34.9470 136.7690 70° East 561 646 31,000  Level FlightAware ADS-B
Fri 01:03:57 PM 34.9820 136.8880 70° East 560 644 31,000  Level FlightAware ADS-B
Fri 01:05:02 PM 35.0350 137.0670 70° East 556 640 31,000  Level FlightAware ADS-B
Fri 01:05:42 PM 35.0720 137.1910 70° East 556 640 31,000  Level FlightAware ADS-B
Fri 01:06:22 PM 35.1060 137.3070 70° East 556 640 31,000  Level FlightAware ADS-B
Fri 01:07:02 PM 35.1390 137.4190 70° East 555 639 31,000  Level FlightAware ADS-B
Fri 01:07:52 PM 35.1860 137.5820 71° East 556 640 31,000  Level FlightAware ADS-B
Fri 01:08:32 PM 35.2210 137.7020 70° East 559 643 31,000  Level FlightAware ADS-B
Fri 01:09:12 PM 35.2560 137.8250 71° East 558 642 31,000  Level FlightAware ADS-B
Fri 01:11:00 PM 35.4403 137.9996 38° Northeast  Level Estimated
Fri 01:12:00 PM 35.5426 138.0970 38° Northeast  Level Estimated
Fri 01:13:00 PM 35.6449 138.1947 38° Northeast  Level Estimated
Fri 01:14:00 PM 35.7470 138.2925 38° Northeast  Level Estimated
Fri 01:15:00 PM 35.8491 138.3907 38° Northeast  Level Estimated
Fri 01:15:17 PM 35.5620 138.9110 38° Northeast 565 650 31,000  Level FlightAware ADS-B
Fri 01:16:02 PM 35.6000 139.0500 71° East 567 652 31,000  Level FlightAware ADS-B
Fri 01:16:32 PM 35.6250 139.1400 71° East 569 655 31,000  Level FlightAware ADS-B
Fri 01:17:12 PM 35.6580 139.2630 72° East 571 657 31,000  Level FlightAware ADS-B
Fri 01:17:52 PM 35.6930 139.3900 71° East 572 658 31,000  Level FlightAware ADS-B
Fri 01:18:37 PM 35.7310 139.5310 72° East 574 661 31,000  Level FlightAware ADS-B
Fri 01:19:17 PM 35.7630 139.6530 72° East 575 662 31,000  Level FlightAware ADS-B
Fri 01:19:57 PM 35.7970 139.7790 72° East 575 662 31,000  Level FlightAware ADS-B
Fri 01:20:42 PM 35.8340 139.9160 72° East 575 662 31,000  Level FlightAware ADS-B
Fri 01:21:22 PM 35.8670 140.0430 72° East 574 661 31,000  Level FlightAware ADS-B
Fri 01:22:07 PM 35.9040 140.1810 72° East 573 659 31,000  Level FlightAware ADS-B
Fri 01:22:47 PM 35.9350 140.3000 72° East 573 659 31,000  Level FlightAware ADS-B
Fri 01:23:32 PM 35.9740 140.4480 72° East 569 655 31,000  Level FlightAware ADS-B
Fri 01:24:12 PM 36.0060 140.5710 72° East 576 663 31,000  Level FlightAware ADS-B
Fri 01:24:52 PM 36.0380 140.6950 72° East 580 667 31,000  Level FlightAware ADS-B
Fri 01:25:27 PM 36.0660 140.8040 72° East 581 669 31,000  Level FlightAware ADS-B
Fri 01:26:27 PM 36.1180 141.0060 72° East 584 672 31,000  Level FlightAware ADS-B
Fri 01:27:42 PM 36.1780 141.2470 73° East 583 671 31,000  Level FlightAware ADS-B
Fri 01:28:52 PM 36.2340 141.4700 73° East 579 666 31,000  Level FlightAware ADS-B
Fri 01:30:07 PM 36.2940 141.7090 73° East 582 670 31,000  Level FlightAware ADS-B
Fri 01:31:12 PM 36.3420 141.9020 73° East 588 677 31,000  Level FlightAware ADS-B
Fri 01:31:47 PM 36.3700 142.0190 73° East 589 678 31,000  Level FlightAware ADS-B
Fri 01:32:37 PM 36.4100 142.1800 73° East 589 678 31,000  Level FlightAware ADS-B
Fri 01:33:17 PM 36.4430 142.3170 73° East 590 679 31,000  Level FlightAware ADS-B
Fri 01:34:02 PM 36.4750 142.4500 73° East 588 677 31,000  Level FlightAware ADS-B
Fri 01:34:37 PM 36.5030 142.5680 74° East 587 676 31,000  Level FlightAware ADS-B
Fri 01:35:22 PM 36.5380 142.7140 73° East 587 676 31,000  Level FlightAware ADS-B
Fri 01:36:07 PM 36.5670 142.8410 74° East 587 676 31,000  Level FlightAware ADS-B
Fri 01:36:42 PM 36.6000 142.9770 73° East 587 676 31,000  Level FlightAware ADS-B
Fri 01:37:47 PM 36.6460 143.1740 74° East 586 674 31,000  Level FlightAware ADS-B
Fri 01:38:27 PM 36.6710 143.2840 74° East 586 674 31,000  Level FlightAware ADS-B
Fri 01:39:07 PM 36.6970 143.3950 74° East 586 674 31,000  Level FlightAware ADS-B
Fri 01:39:47 PM 36.7220 143.5050 74° East 586 674 31,000  Level FlightAware ADS-B
Fri 01:40:27 PM 36.7480 143.6160 74° East 586 674 31,000  Level FlightAware ADS-B
Fri 01:41:07 PM 36.7730 143.7260 74° East 586 674 31,000  Level FlightAware ADS-B
Fri 01:41:57 PM 36.8050 143.8650 74° East 586 674 31,000  Level FlightAware ADS-B
Fri 01:42:37 PM 36.8300 143.9750 74° East 586 674 31,000  Level FlightAware ADS-B
Fri 01:43:17 PM 36.8550 144.0860 74° East 586 674 31,000  Level FlightAware ADS-B
Fri 01:43:57 PM 36.8810 144.1970 74° East 586 674 31,000  Level FlightAware ADS-B
Fri 01:44:37 PM 36.9060 144.3080 74° East 586 674 31,000  Level FlightAware ADS-B
Fri 01:45:27 PM 36.9380 144.4460 74° East 586 674 31,000  Level FlightAware ADS-B
Fri 01:46:07 PM 36.9630 144.5570 74° East 586 674 31,000  Level FlightAware ADS-B
Fri 01:46:47 PM 36.9890 144.6680 74° East 586 674 31,000  Level FlightAware ADS-B
Fri 01:49:00 PM 37.0590 145.0165 76° East  Level FlightAware Approximate
Fri 01:50:00 PM 37.0903 145.1739 76° East  Level FlightAware Approximate
Fri 01:51:00 PM 37.1213 145.3315 76° East  Level FlightAware Approximate
Fri 01:52:00 PM 37.1521 145.4891 76° East  Level FlightAware Approximate
Fri 01:53:00 PM 37.1854 145.6524 43° Northeast  Level FlightAware Approximate
Fri 01:54:00 PM 37.2804 145.7628 43° Northeast  Level FlightAware Approximate
Fri 01:55:00 PM 37.3754 145.8734 43° Northeast  Level FlightAware Approximate
Fri 01:56:00 PM 37.4702 145.9843 43° Northeast  Level FlightAware Approximate
Fri 01:57:00 PM 37.5650 146.0955 43° Northeast  Level FlightAware Approximate
Fri 01:58:00 PM 37.6596 146.2070 43° Northeast  Level FlightAware Approximate
Fri 01:59:00 PM 37.7541 146.3187 43° Northeast  Level FlightAware Approximate
Fri 02:00:00 PM 37.8485 146.4308 43° Northeast  Level FlightAware Approximate
Fri 02:01:00 PM 37.9428 146.5431 43° Northeast  Level FlightAware Approximate
Fri 02:02:00 PM 38.0370 146.6557 43° Northeast  Level FlightAware Approximate
Fri 02:03:00 PM 38.1311 146.7686 43° Northeast  Level FlightAware Approximate
Fri 02:04:00 PM 38.2251 146.8818 43° Northeast  Level FlightAware Approximate
Fri 02:05:00 PM 38.3190 146.9953 43° Northeast  Level FlightAware Approximate
Fri 02:06:00 PM 38.4128 147.1091 44° Northeast  Level FlightAware Approximate
Fri 02:07:00 PM 38.5064 147.2232 44° Northeast  Level FlightAware Approximate
Fri 02:08:00 PM 38.6000 147.3376 44° Northeast  Level FlightAware Approximate
Fri 02:09:00 PM 38.6934 147.4522 44° Northeast  Level FlightAware Approximate
Fri 02:10:00 PM 38.7868 147.5672 44° Northeast  Level FlightAware Approximate
Fri 02:11:00 PM 38.8800 147.6825 44° Northeast  Level FlightAware Approximate
Fri 02:12:00 PM 38.9731 147.7981 44° Northeast  Level FlightAware Approximate
Fri 02:13:00 PM 39.0660 147.9140 44° Northeast  Level FlightAware Approximate
Fri 02:14:00 PM 39.1589 148.0301 44° Northeast  Level FlightAware Approximate
Fri 02:15:00 PM 39.2517 148.1466 44° Northeast  Level FlightAware Approximate
Fri 02:16:00 PM 39.3443 148.2634 44° Northeast  Level FlightAware Approximate
Fri 02:17:00 PM 39.4368 148.3806 44° Northeast  Level FlightAware Approximate
Fri 02:18:00 PM 39.5292 148.4980 44° Northeast  Level FlightAware Approximate
Fri 02:19:00 PM 39.6215 148.6157 44° Northeast  Level FlightAware Approximate
Fri 02:20:00 PM 39.7137 148.7338 45° Northeast  Level FlightAware Approximate
Fri 02:21:00 PM 39.8057 148.8521 45° Northeast  Level FlightAware Approximate
Fri 02:22:00 PM 39.8976 148.9708 45° Northeast  Level FlightAware Approximate
Fri 02:23:00 PM 39.9894 149.0898 45° Northeast  Level FlightAware Approximate
Fri 02:24:00 PM 40.0811 149.2091 45° Northeast  Level FlightAware Approximate
Fri 02:25:00 PM 40.1727 149.3288 45° Northeast  Level FlightAware Approximate
Fri 02:26:00 PM 40.2641 149.4487 45° Northeast  Level FlightAware Approximate
Fri 02:27:00 PM 40.3554 149.5690 45° Northeast  Level FlightAware Approximate
Fri 02:28:00 PM 40.4467 149.6895 45° Northeast  Level FlightAware Approximate
Fri 02:29:00 PM 40.5381 149.8101 45° Northeast  Level FlightAware Approximate
Fri 02:30:00 PM 40.6293 149.9310 45° Northeast  Level FlightAware Approximate
Fri 02:31:00 PM 40.7204 150.0522 45° Northeast  Level FlightAware Approximate
Fri 02:32:00 PM 40.8114 150.1737 45° Northeast  Level FlightAware Approximate
Fri 02:33:00 PM 40.9023 150.2956 45° Northeast  Level FlightAware Approximate
Fri 02:34:00 PM 40.9930 150.4178 45° Northeast  Level FlightAware Approximate
Fri 02:35:00 PM 41.0836 150.5403 46° Northeast  Level FlightAware Approximate
Fri 02:36:00 PM 41.1741 150.6632 46° Northeast  Level FlightAware Approximate
Fri 02:37:00 PM 41.2644 150.7865 46° Northeast  Level FlightAware Approximate
Fri 02:38:00 PM 41.3546 150.9100 46° Northeast  Level FlightAware Approximate
Fri 02:39:00 PM 41.4447 151.0339 46° Northeast  Level FlightAware Approximate
Fri 02:40:00 PM 41.5344 151.1585 47° Northeast  Level FlightAware Approximate
Fri 02:41:00 PM 41.6230 151.2846 47° Northeast  Level FlightAware Approximate
Fri 02:42:00 PM 41.7115 151.4111 47° Northeast  Level FlightAware Approximate
Fri 02:43:00 PM 41.7998 151.5379 47° Northeast  Level FlightAware Approximate
Fri 02:44:00 PM 41.8880 151.6650 47° Northeast  Level FlightAware Approximate
Fri 02:45:00 PM 41.9761 151.7925 47° Northeast  Level FlightAware Approximate
Fri 02:46:00 PM 42.0641 151.9202 47° Northeast  Level FlightAware Approximate
Fri 02:47:00 PM 42.1528 152.0473 47° Northeast  Level FlightAware Approximate
Fri 02:48:00 PM 42.2413 152.1748 47° Northeast  Level FlightAware Approximate
Fri 02:49:00 PM 42.3297 152.3026 47° Northeast  Level FlightAware Approximate
Fri 02:50:00 PM 42.4179 152.4308 47° Northeast  Level FlightAware Approximate
Fri 02:51:00 PM 42.5060 152.5594 47° Northeast  Level FlightAware Approximate
Fri 02:52:00 PM 42.5939 152.6883 47° Northeast  Level FlightAware Approximate
Fri 02:53:00 PM 42.6817 152.8175 47° Northeast  Level FlightAware Approximate
Fri 02:54:00 PM 42.7694 152.9472 47° Northeast  Level FlightAware Approximate
Fri 02:55:00 PM 42.8569 153.0772 47° Northeast  Level FlightAware Approximate
Fri 02:56:00 PM 42.9442 153.2076 48° Northeast  Level FlightAware Approximate
Fri 02:57:00 PM 43.0314 153.3383 48° Northeast  Level FlightAware Approximate
Fri 02:58:00 PM 43.1185 153.4694 48° Northeast  Level FlightAware Approximate
Fri 02:59:00 PM 43.2058 153.6004 48° Northeast  Level FlightAware Approximate
Fri 03:00:00 PM 43.2929 153.7318 48° Northeast  Level FlightAware Approximate
Fri 03:01:00 PM 43.3799 153.8635 48° Northeast  Level FlightAware Approximate
Fri 03:02:00 PM 43.4668 153.9957 48° Northeast  Level FlightAware Approximate
Fri 03:03:00 PM 43.5535 154.1282 48° Northeast  Level FlightAware Approximate
Fri 03:04:00 PM 43.6400 154.2610 48° Northeast  Level FlightAware Approximate
Fri 03:05:00 PM 43.7264 154.3943 48° Northeast  Level FlightAware Approximate
Fri 03:06:00 PM 43.8127 154.5280 48° Northeast  Level FlightAware Approximate
Fri 03:07:00 PM 43.8987 154.6620 48° Northeast  Level FlightAware Approximate
Fri 03:08:00 PM 43.9847 154.7964 48° Northeast  Level FlightAware Approximate
Fri 03:09:00 PM 44.0704 154.9313 48° Northeast  Level FlightAware Approximate
Fri 03:10:00 PM 44.1560 155.0665 49° Northeast  Level FlightAware Approximate
Fri 03:11:00 PM 44.2397 155.2043 50° Northeast  Level FlightAware Approximate
Fri 03:12:00 PM 44.3229 155.3427 50° Northeast  Level FlightAware Approximate
Fri 03:13:00 PM 44.4059 155.4816 50° Northeast  Level FlightAware Approximate
Fri 03:14:00 PM 44.4888 155.6209 50° Northeast  Level FlightAware Approximate
Fri 03:15:00 PM 44.5715 155.7605 50° Northeast  Level FlightAware Approximate
Fri 03:16:00 PM 44.6540 155.9006 50° Northeast  Level FlightAware Approximate
Fri 03:17:00 PM 44.7364 156.0411 50° Northeast  Level FlightAware Approximate
Fri 03:18:00 PM 44.8186 156.1819 51° Northeast  Level FlightAware Approximate
Fri 03:19:00 PM 44.9006 156.3232 51° Northeast  Level FlightAware Approximate
Fri 03:20:00 PM 44.9824 156.4648 51° Northeast  Level FlightAware Approximate
Fri 03:21:00 PM 45.0641 156.6069 51° Northeast  Level FlightAware Approximate
Fri 03:22:00 PM 45.1456 156.7494 51° Northeast  Level FlightAware Approximate
Fri 03:23:00 PM 45.2269 156.8923 51° Northeast  Level FlightAware Approximate
Fri 03:24:00 PM 45.3080 157.0356 51° Northeast  Level FlightAware Approximate
Fri 03:25:00 PM 45.3890 157.1793 51° Northeast  Level FlightAware Approximate
Fri 03:26:00 PM 45.4697 157.3234 51° Northeast  Level FlightAware Approximate
Fri 03:27:00 PM 45.5503 157.4679 51° Northeast  Level FlightAware Approximate
Fri 03:28:00 PM 45.6307 157.6128 52° Northeast  Level FlightAware Approximate
Fri 03:29:00 PM 45.7109 157.7582 52° Northeast  Level FlightAware Approximate
Fri 03:30:00 PM 45.7910 157.9040 52° Northeast  Level FlightAware Approximate
Fri 03:31:00 PM 45.8708 158.0502 52° Northeast  Level FlightAware Approximate
Fri 03:31:53 PM 47.5500 161.3333 55° Northeast 535 616 31,000  Level Anchorage Center
Fri 03:32:00 PM 45.9505 158.1968 52° Northeast  Level FlightAware Approximate
Fri 03:33:00 PM 46.0299 158.3438 52° Northeast  Level FlightAware Approximate
Fri 03:34:00 PM 46.1092 158.4913 52° Northeast  Level FlightAware Approximate
Fri 03:35:00 PM 46.1883 158.6391 52° Northeast  Level FlightAware Approximate
Fri 03:35:02 PM 47.8500 161.9500 55° Northeast 533 613 31,000  Level Anchorage Center
Fri 03:36:00 PM 46.2672 158.7874 52° Northeast  Level FlightAware Approximate
Fri 03:37:00 PM 46.3459 158.9362 52° Northeast  Level FlightAware Approximate
Fri 03:38:00 PM 48.1270 162.5596 55° Northeast 535 616 31,000  Level FlightAware Transoceanic
Fri 03:39:00 PM 48.2083 162.7370 56° Northeast 535 616 31,000  Level FlightAware Transoceanic
Fri 03:40:00 PM 48.2894 162.9150 56° Northeast 535 616 31,000  Level FlightAware Transoceanic
Fri 03:41:00 PM 48.3476 163.0328 56° Northeast 533 613 31,000  Level FlightAware Transoceanic
Fri 03:42:00 PM 48.4296 163.2154 56° Northeast 533 613 31,000  Level FlightAware Transoceanic
Fri 03:43:00 PM 48.5112 163.3985 56° Northeast 533 613 31,000  Level FlightAware Transoceanic
Fri 03:44:00 PM 48.5926 163.5822 56° Northeast 533 613 31,000  Level FlightAware Transoceanic
Fri 03:44:38 PM 48.6500 163.7167 56° Northeast 534 615 31,000  Level Anchorage Center
Fri 03:45:00 PM 48.6736 163.7665 56° Northeast 533 613 31,000  Level FlightAware Transoceanic
Fri 03:46:00 PM 48.7544 163.9513 57° Northeast 533 613 31,000  Level FlightAware Transoceanic
Fri 03:47:00 PM 48.8349 164.1368 57° Northeast 533 613 31,000  Level FlightAware Transoceanic
Fri 03:48:00 PM 48.9151 164.3229 57° Northeast 533 613 31,000  Level FlightAware Transoceanic
Fri 03:49:00 PM 48.9949 164.5096 57° Northeast 533 613 31,000  Level FlightAware Transoceanic
Fri 03:50:00 PM 49.0745 164.6968 57° Northeast 533 613 31,000  Level FlightAware Transoceanic
Fri 03:51:00 PM 49.1413 164.8573 57° Northeast 534 615 31,000  Level FlightAware Transoceanic
Fri 03:52:00 PM 49.2221 165.0496 57° Northeast 534 615 31,000  Level FlightAware Transoceanic
Fri 03:53:00 PM 49.3026 165.2426 57° Northeast 534 615 31,000  Level FlightAware Transoceanic
Fri 03:54:00 PM 49.3827 165.4361 58° Northeast 534 615 31,000  Level FlightAware Transoceanic
Fri 03:54:14 PM 49.4167 165.5167 58° Northeast 531 611 31,000  Level Anchorage Center
Fri 03:55:00 PM 49.4625 165.6303 58° Northeast 534 615 31,000  Level FlightAware Transoceanic
Fri 03:56:00 PM 49.5420 165.8251 58° Northeast 534 615 31,000  Level FlightAware Transoceanic
Fri 03:57:00 PM 49.6212 166.0206 58° Northeast 534 615 31,000  Level FlightAware Transoceanic
Fri 03:58:00 PM 49.7000 166.2167 55° Northeast 534 615 31,000  Level FlightAware Transoceanic
Fri 03:58:00 PM 49.7000 166.2167 55° Northeast 527 606 31,000  Level Anchorage Center
Fri 03:59:00 PM 49.7796 166.3960 56° Northeast 534 615 31,000  Level FlightAware Transoceanic
Fri 04:00:00 PM 49.8589 166.5760 56° Northeast 531 611 31,000  Level FlightAware Transoceanic
Fri 04:01:00 PM 49.9379 166.7565 56° Northeast 531 611 31,000  Level FlightAware Transoceanic
Fri 04:02:00 PM 50.0167 166.9376 56° Northeast 531 611 31,000  Level FlightAware Transoceanic
Fri 04:03:00 PM 50.0951 167.1193 56° Northeast 531 611 31,000  Level FlightAware Transoceanic
Fri 04:03:51 PM 50.1500 167.3833 56° Northeast 525 604 31,000  Level Anchorage Center
Fri 04:04:00 PM 50.1850 167.3291 56° Northeast 527 606 31,000  Level FlightAware Transoceanic
Fri 04:05:00 PM 50.2648 167.5166 56° Northeast 527 606 31,000  Level FlightAware Transoceanic
Fri 04:06:00 PM 50.3443 167.7048 57° Northeast 527 606 31,000  Level FlightAware Transoceanic
Fri 04:07:00 PM 50.4235 167.8937 57° Northeast 527 606 31,000  Level FlightAware Transoceanic
Fri 04:08:00 PM 50.5024 168.0831 57° Northeast 527 606 31,000  Level FlightAware Transoceanic
Fri 04:09:00 PM 50.5810 168.2733 57° Northeast 527 606 31,000  Level FlightAware Transoceanic
Fri 04:10:00 PM 50.6299 168.5085 57° Northeast 525 604 31,000  Level FlightAware Transoceanic
Fri 04:11:00 PM 50.7089 168.6982 57° Northeast 525 604 31,000  Level FlightAware Transoceanic
Fri 04:12:00 PM 50.7875 168.8886 57° Northeast 525 604 31,000  Level FlightAware Transoceanic
Fri 04:13:00 PM 50.8658 169.0796 57° Northeast 525 604 31,000  Level FlightAware Transoceanic
Fri 04:13:23 PM 50.8500 169.2667 56° Northeast 518 596 31,000  Level Anchorage Center
Fri 04:14:00 PM 50.9438 169.2713 57° Northeast 525 604 31,000  Level FlightAware Transoceanic
Fri 04:15:00 PM 51.0215 169.4636 57° Northeast 525 604 31,000  Level FlightAware Transoceanic
Fri 04:15:39 PM 50.9833 169.7167 57° Northeast 520 598 31,000  Level Anchorage Center
Fri 04:16:00 PM 51.0988 169.6565 58° Northeast 525 604 31,000  Level FlightAware Transoceanic
Fri 04:16:39 PM 51.0500 169.8833 57° Northeast 520 598 31,000  Level Anchorage Center
Fri 04:17:00 PM 51.1759 169.8501 58° Northeast 525 604 31,000  Level FlightAware Transoceanic
Fri 04:17:39 PM 51.1167 170.1000 64° Northeast 520 598 31,000  Level Anchorage Center
Fri 04:18:00 PM 51.2526 170.0444 58° Northeast 525 604 31,000  Level FlightAware Transoceanic
Fri 04:18:39 PM 51.1833 170.2833 60° Northeast 520 598 31,000  Level Anchorage Center
Fri 04:19:00 PM 51.3156 170.3826 57° Northeast 518 596 31,000  Level FlightAware Transoceanic
Fri 04:19:39 PM 51.2667 170.5000 58° Northeast 520 598 31,000  Level Anchorage Center
Fri 04:20:00 PM 51.3922 170.5707 57° Northeast 518 596 31,000  Level FlightAware Transoceanic
Fri 04:20:39 PM 51.3333 170.7167 64° Northeast 510 587 31,000  Level Anchorage Center
Fri 04:21:39 PM 51.3833 170.8833 64° Northeast 520 598 31,000  Level Anchorage Center
Fri 04:22:39 PM 51.4667 171.1167 60° Northeast 520 598 31,000  Level Anchorage Center
Fri 04:23:40 PM 51.5333 171.2833 57° Northeast 520 598 31,000  Level Anchorage Center
Fri 04:24:39 PM 51.6167 171.4667 54° Northeast 500 575 31,000  Level Anchorage Center
Fri 04:25:40 PM 51.6833 171.6333 57° Northeast 500 575 31,000  Level Anchorage Center
Fri 04:26:40 PM 51.7667 171.8333 56° Northeast 500 575 31,000  Level Anchorage Center
Fri 04:27:40 PM 51.8333 171.9833 54° Northeast 500 575 31,000  Level Anchorage Center
Fri 04:28:40 PM 51.9333 172.1833 51° Northeast 500 575 31,000 750 Level Anchorage Center
Fri 04:29:40 PM 52.0167 172.4000 58° Northeast 510 587 32,500 1,000 Climbing Anchorage Center
Fri 04:30:40 PM 52.0833 172.5500 54° Northeast 490 564 33,000 250 Climbing Anchorage Center
Fri 04:31:40 PM 52.1667 172.7500 56° Northeast 490 564 33,000  Level Anchorage Center
Fri 04:32:40 PM 52.2333 172.9167 57° Northeast 490 564 33,000  Level Anchorage Center
Fri 04:33:40 PM 52.3167 173.1167 56° Northeast 490 564 33,000  Level Anchorage Center
Fri 04:34:40 PM 52.3833 173.2833 57° Northeast 490 564 33,000  Level Anchorage Center
Fri 04:35:40 PM 52.4667 173.4833 56° Northeast 490 564 33,000  Level Anchorage Center
Fri 04:36:40 PM 52.5333 173.6500 57° Northeast 490 564 33,000  Level Anchorage Center
Fri 04:37:40 PM 52.6167 173.8500 55° Northeast 490 564 33,000  Level Anchorage Center
Fri 04:40:00 PM 52.7375 174.1050 58° Northeast  Level FlightAware Approximate
Fri 04:41:25 PM 52.9000 174.5833 58° Northeast 490 564 33,000  Level Anchorage Center
Fri 04:42:25 PM 52.9500 174.7500 63° Northeast 490 564 33,000  Level Anchorage Center
Fri 04:43:25 PM 53.0333 174.9500 55° Northeast 490 564 33,000  Level Anchorage Center
Fri 04:44:26 PM 53.1000 175.1167 56° Northeast 480 552 33,000  Level Anchorage Center
Fri 04:45:25 PM 53.1833 175.3333 57° Northeast 490 564 33,000  Level Anchorage Center
Fri 04:46:26 PM 53.2333 175.5000 63° Northeast 490 564 33,000  Level Anchorage Center
Fri 04:47:26 PM 53.3167 175.7167 57° Northeast 480 552 33,000  Level Anchorage Center
Fri 04:48:26 PM 53.3833 175.8833 56° Northeast 490 564 33,000  Level Anchorage Center
Fri 04:49:26 PM 53.4500 176.0833 61° Northeast 480 552 33,000  Level Anchorage Center
Fri 04:50:26 PM 53.5167 176.3000 63° Northeast 480 552 33,000  Level Anchorage Center
Fri 04:51:26 PM 53.5833 176.4667 56° Northeast 480 552 33,000  Level Anchorage Center
Fri 04:52:26 PM 53.6500 176.6833 62° Northeast 480 552 33,000  Level Anchorage Center
Fri 04:53:26 PM 53.7167 176.8667 58° Northeast 480 552 33,000  Level Anchorage Center
Fri 04:54:26 PM 53.8000 177.0667 55° Northeast 480 552 33,000  Level Anchorage Center
Fri 04:55:26 PM 53.8500 177.2333 63° Northeast 480 552 33,000  Level Anchorage Center
Fri 04:56:26 PM 53.9167 177.4500 62° Northeast 480 552 33,000  Level Anchorage Center
Fri 04:57:26 PM 53.9833 177.6333 58° Northeast 480 552 33,000  Level Anchorage Center
Fri 04:58:26 PM 54.0500 177.8500 62° Northeast 480 552 33,000  Level Anchorage Center
Fri 04:59:27 PM 54.1167 178.0667 62° Northeast 480 552 33,000  Level Anchorage Center
Fri 05:00:27 PM 54.1833 178.2333 56° Northeast 470 541 33,000  Level Anchorage Center
Fri 05:01:27 PM 54.2500 178.4500 62° Northeast 480 552 33,000  Level Anchorage Center
Fri 05:03:27 PM 54.3667 178.8000 60° Northeast 490 564 33,000  Level Anchorage Center
Fri 05:05:00 PM 54.4840 179.1353 62° Northeast  Level FlightAware Approximate
Fri 05:11:43 PM 54.8667 -179.6667 63° Northeast 468 539 33,000  Level Anchorage Center
Fri 05:12:00 PM 54.9634 -179.2916 62° Northeast  Level FlightAware Approximate
Fri 05:13:00 PM 55.0302 -179.0638 63° Northeast  Level FlightAware Approximate
Fri 05:14:00 PM 55.0966 -178.8353 63° Northeast  Level FlightAware Approximate
Fri 05:15:00 PM 55.1626 -178.6060 63° Northeast  Level FlightAware Approximate
Fri 05:16:00 PM 55.2278 -178.3757 64° Northeast  Level FlightAware Approximate
Fri 05:17:00 PM 55.2924 -178.1445 64° Northeast  Level FlightAware Approximate
Fri 05:18:00 PM 55.2863 -178.2080 64° Northeast 468 539 33,000  Level FlightAware Transoceanic
Fri 05:18:05 PM 55.2000 -178.5333 64° Northeast 465 535 33,000  Level Anchorage Center
Fri 05:18:19 PM 55.2000 -178.5333 64° Northeast 465 535 33,000  Level Anchorage Center
Fri 05:19:00 PM 55.3448 -177.9971 64° Northeast 468 539 33,000  Level FlightAware Transoceanic
Fri 05:20:00 PM 55.4029 -177.7856 64° Northeast 468 539 33,000  Level FlightAware Transoceanic
Fri 05:20:39 PM 55.4167 -177.7333 64° Northeast 466 536 33,000  Level Anchorage Center
Fri 05:21:00 PM 55.4607 -177.5735 64° Northeast 468 539 33,000  Level FlightAware Transoceanic
Fri 05:22:00 PM 55.5181 -177.3607 65° Northeast 468 539 33,000  Level FlightAware Transoceanic
Fri 05:23:00 PM 55.5752 -177.1474 65° Northeast 468 539 33,000  Level FlightAware Transoceanic
Fri 05:24:00 PM 55.6002 -177.0685 65° Northeast 465 535 33,000  Level FlightAware Transoceanic
Fri 05:24:48 PM 55.6167 -176.8667 66° East 460 529 33,000  Level Anchorage Center
Fri 05:25:00 PM 55.6559 -176.8568 65° Northeast 465 535 33,000  Level FlightAware Transoceanic
Fri 05:25:48 PM 55.6667 -176.6667 66° East 460 529 33,000  Level Anchorage Center
Fri 05:26:00 PM 55.6995 -176.6736 65° Northeast 466 536 33,000  Level FlightAware Transoceanic
Fri 05:26:48 PM 55.7167 -176.4500 68° East 450 518 33,000  Level Anchorage Center
Fri 05:27:00 PM 55.7549 -176.4598 65° Northeast 466 536 33,000  Level FlightAware Transoceanic
Fri 05:27:48 PM 55.7833 -176.2500 59° Northeast 460 529 33,000  Level Anchorage Center
Fri 05:28:00 PM 55.8100 -176.2454 66° East 466 536 33,000  Level FlightAware Transoceanic
Fri 05:28:48 PM 55.8333 -176.0333 68° East 460 529 33,000  Level Anchorage Center
Fri 05:29:00 PM 55.8647 -176.0304 66° East 466 536 33,000  Level FlightAware Transoceanic
Fri 05:29:48 PM 55.8833 -175.8333 66° East 470 541 33,000  Level Anchorage Center
Fri 05:30:00 PM 55.9190 -175.8148 66° East 466 536 33,000  Level FlightAware Transoceanic
Fri 05:30:48 PM 55.9500 -175.6167 61° Northeast 470 541 33,000  Level Anchorage Center
Fri 05:31:49 PM 56.0000 -175.4000 67° East 470 541 33,000  Level Anchorage Center
Fri 05:32:49 PM 56.0333 -175.1833 75° East 470 541 33,000  Level Anchorage Center
Fri 05:33:49 PM 56.1000 -174.9667 61° Northeast 470 541 33,000  Level Anchorage Center
Fri 05:34:50 PM 56.1500 -174.7500 67° East 470 541 33,000  Level Anchorage Center
Fri 05:35:49 PM 56.2000 -174.5333 67° East 480 552 33,000  Level Anchorage Center
Fri 05:36:49 PM 56.2500 -174.3500 64° Northeast 480 552 33,000  Level Anchorage Center
Fri 05:37:49 PM 56.3000 -174.1333 67° East 470 541 33,000  Level Anchorage Center
Fri 05:38:49 PM 56.3500 -173.9000 69° East 490 564 33,000  Level Anchorage Center
Fri 05:39:49 PM 56.4000 -173.6667 69° East 490 564 33,000  Level Anchorage Center
Fri 05:40:49 PM 56.4500 -173.4500 67° East 480 552 33,000  Level Anchorage Center
Fri 05:41:49 PM 56.5000 -173.2167 69° East 480 552 33,000  Level Anchorage Center
Fri 05:42:49 PM 56.5500 -173.0000 67° East 480 552 33,000  Level Anchorage Center
Fri 05:43:50 PM 56.6000 -172.7667 69° East 480 552 33,000  Level Anchorage Center
Fri 05:44:49 PM 56.6500 -172.5500 67° East 470 541 33,000  Level Anchorage Center
Fri 05:45:49 PM 56.7000 -172.3167 69° East 470 541 33,000  Level Anchorage Center
Fri 05:46:50 PM 56.7500 -172.1000 67° East 470 541 33,000  Level Anchorage Center
Fri 05:47:50 PM 56.8000 -171.8667 69° East 470 541 33,000  Level Anchorage Center
Fri 05:48:50 PM 56.8500 -171.6500 67° East 470 541 33,000  Level Anchorage Center
Fri 05:49:50 PM 56.9000 -171.4333 67° East 470 541 33,000  Level Anchorage Center
Fri 05:50:50 PM 56.9500 -171.2000 68° East 460 529 33,000  Level Anchorage Center
Fri 05:51:50 PM 57.0000 -170.9833 67° East 470 541 33,000  Level Anchorage Center
Fri 05:52:50 PM 57.0333 -170.7500 75° East 470 541 33,000  Level Anchorage Center
Fri 05:53:50 PM 57.0833 -170.5333 67° East 470 541 33,000  Level Anchorage Center
Fri 05:57:00 PM 57.2333 -169.7667 70° East 460 529 33,000  Level Anchorage Center
Fri 05:58:00 PM 57.2833 -169.5500 67° East 500 575 33,000  Level Anchorage Center
Fri 05:59:00 PM 57.3333 -169.3167 68° East 470 541 33,000  Level Anchorage Center
Fri 06:00:00 PM 57.3667 -169.0833 75° East 470 541 33,000  Level Anchorage Center
Fri 06:01:01 PM 57.4167 -168.8500 68° East 460 529 33,000  Level Anchorage Center
Fri 06:02:00 PM 57.4500 -168.6667 71° East 470 541 33,000  Level Anchorage Center
Fri 06:03:00 PM 57.5000 -168.4500 67° East 460 529 33,000  Level Anchorage Center
Fri 06:04:01 PM 57.5333 -168.2167 75° East 460 529 33,000  Level Anchorage Center
Fri 06:05:01 PM 57.5833 -167.9833 68° East 460 529 33,000  Level Anchorage Center
Fri 06:06:01 PM 57.6167 -167.7500 75° East 460 529 33,000  Level Anchorage Center
Fri 06:07:01 PM 57.6667 -167.5333 67° East 460 529 33,000  Level Anchorage Center
Fri 06:08:01 PM 57.7000 -167.3000 75° East 460 529 33,000  Level Anchorage Center
Fri 06:09:01 PM 57.7500 -167.0667 68° East 470 541 33,000  Level Anchorage Center
Fri 06:10:01 PM 57.7833 -166.8333 75° East 460 529 33,000  Level Anchorage Center
Fri 06:11:01 PM 57.8167 -166.6000 75° East 460 529 33,000  Level Anchorage Center
Fri 06:12:01 PM 57.8667 -166.3667 68° East 460 529 33,000  Level Anchorage Center
Fri 06:13:01 PM 57.9000 -166.1333 75° East 460 529 33,000  Level Anchorage Center
Fri 06:14:01 PM 57.9500 -165.8500 71° East 470 541 33,000  Level Anchorage Center
Fri 06:15:02 PM 57.9833 -165.6167 75° East 460 529 33,000  Level Anchorage Center
Fri 06:16:02 PM 58.0167 -165.3833 75° East 460 529 33,000  Level Anchorage Center
Fri 06:17:02 PM 58.0500 -165.1500 75° East 470 541 33,000  Level Anchorage Center
Fri 06:18:02 PM 58.0667 -164.9000 83° East 460 529 33,000  Level Anchorage Center
Fri 06:19:02 PM 58.0667 -164.6500 90° East 470 541 33,000  Level Anchorage Center
Fri 06:20:02 PM 58.0667 -164.4000 90° East 470 541 33,000  Level Anchorage Center
Fri 06:21:02 PM 58.0667 -164.1500 90° East 470 541 33,000  Level Anchorage Center
Fri 06:22:02 PM 58.0833 -163.9000 83° East 470 541 33,000  Level Anchorage Center
Fri 06:23:02 PM 58.0833 -163.6500 90° East 480 552 33,000  Level Anchorage Center
Fri 06:24:02 PM 58.0833 -163.4000 90° East 480 552 33,000  Level Anchorage Center
Fri 06:25:02 PM 58.1000 -163.1500 83° East 480 552 33,000  Level Anchorage Center
Fri 06:26:09 PM 58.1000 -162.8833 90° East 470 541 33,000  Level Anchorage Center
Fri 06:27:09 PM 58.1000 -162.6333 90° East 480 552 33,000  Level Anchorage Center
Fri 06:28:10 PM 58.1000 -162.3833 90° East 470 541 33,000  Level Anchorage Center
Fri 06:29:10 PM 58.1000 -162.1333 90° East 470 541 33,000  Level Anchorage Center
Fri 06:30:10 PM 58.1000 -161.8833 90° East 470 541 33,000  Level Anchorage Center
Fri 06:31:10 PM 58.1000 -161.6333 90° East 480 552 33,000  Level Anchorage Center
Fri 06:32:10 PM 58.1000 -161.3833 90° East 480 552 33,000  Level Anchorage Center
Fri 06:33:10 PM 58.1000 -161.1167 90° East 480 552 33,000  Level Anchorage Center
Fri 06:34:10 PM 58.1000 -160.8667 90° East 490 564 33,000  Level Anchorage Center
Fri 06:35:10 PM 58.1000 -160.6000 90° East 490 564 33,000  Level Anchorage Center
Fri 06:36:10 PM 58.1000 -160.3500 90° East 490 564 33,000  Level Anchorage Center
Fri 06:37:10 PM 58.1000 -160.0833 90° East 500 575 33,000  Level Anchorage Center
Fri 06:38:10 PM 58.0833 -159.8167 97° East 490 564 33,000  Level Anchorage Center
Fri 06:39:10 PM 58.0833 -159.5500 90° East 500 575 33,000  Level Anchorage Center
Fri 06:40:11 PM 58.0833 -159.2833 90° East 500 575 33,000  Level Anchorage Center
Fri 06:41:11 PM 58.0833 -159.0167 90° East 500 575 33,000  Level Anchorage Center
Fri 06:42:11 PM 58.0667 -158.7667 97° East 500 575 33,000  Level Anchorage Center
Fri 06:43:11 PM 58.0667 -158.5000 90° East 490 564 33,000  Level Anchorage Center
Fri 06:44:11 PM 58.0667 -158.2333 90° East 490 564 33,000  Level Anchorage Center
Fri 06:45:11 PM 58.0500 -157.9833 97° East 490 564 33,000  Level Anchorage Center
Fri 06:46:11 PM 58.0500 -157.7167 90° East 500 575 33,000  Level Anchorage Center
Fri 06:47:11 PM 58.0333 -157.4500 97° East 500 575 33,000  Level Anchorage Center
Fri 06:49:11 PM 58.0167 -156.9167 93° East 500 575 33,000  Level Anchorage Center
Fri 06:50:11 PM 58.0167 -156.6500 90° East 500 575 33,000  Level Anchorage Center
Fri 06:51:12 PM 58.0000 -156.4000 97° East 500 575 33,000  Level Anchorage Center
Fri 06:52:12 PM 57.9833 -156.1167 96° East 500 575 33,000  Level Anchorage Center
Fri 06:53:12 PM 57.9667 -155.8667 97° East 490 564 33,000  Level Anchorage Center
Fri 06:54:12 PM 57.9667 -155.6000 90° East 500 575 33,000  Level Anchorage Center
Fri 06:55:12 PM 57.9500 -155.3333 97° East 500 575 33,000  Level Anchorage Center
Fri 06:56:12 PM 57.9333 -155.0667 97° East 500 575 33,000  Level Anchorage Center
Fri 06:57:13 PM 57.9167 -154.8000 97° East 500 575 33,000  Level Anchorage Center
Fri 06:58:12 PM 57.9167 -154.5500 90° East 500 575 33,000  Level Anchorage Center
Fri 06:59:12 PM 57.9000 -154.2833 97° East 510 587 33,000  Level Anchorage Center
Fri 07:00:13 PM 57.8833 -154.0167 97° East 500 575 33,000  Level Anchorage Center
Fri 07:01:13 PM 57.8667 -153.7500 97° East 510 587 33,000  Level Anchorage Center
Fri 07:02:13 PM 57.8500 -153.5000 97° East 500 575 33,000  Level Anchorage Center
Fri 07:03:13 PM 57.8333 -153.1833 96° East 500 575 33,000  Level Anchorage Center
Fri 07:04:13 PM 57.8167 -152.9167 97° East 500 575 33,000  Level Anchorage Center
Fri 07:05:13 PM 57.7833 -152.6500 103° East 500 575 33,000  Level Anchorage Center
Fri 07:06:13 PM 57.7667 -152.3833 97° East 520 598 33,000  Level Anchorage Center
Fri 07:07:13 PM 57.7333 -152.1333 104° East 510 587 33,000  Level Anchorage Center
Fri 07:08:13 PM 57.6833 -151.8833 110° East 510 587 33,000  Level Anchorage Center
Fri 07:09:14 PM 57.6500 -151.6167 103° East 510 587 33,000  Level Anchorage Center
Fri 07:10:14 PM 57.6000 -151.3667 110° East 510 587 33,000  Level Anchorage Center
Fri 07:11:14 PM 57.5667 -151.1167 104° East 510 587 33,000  Level Anchorage Center
Fri 07:12:14 PM 57.5167 -150.8500 109° East 520 598 33,000  Level Anchorage Center
Fri 07:13:14 PM 57.4667 -150.6000 110° East 520 598 33,000  Level Anchorage Center
Fri 07:14:14 PM 57.4167 -150.3500 110° East 520 598 33,000  Level Anchorage Center
Fri 07:15:14 PM 57.3833 -150.0833 103° East 520 598 33,000  Level Anchorage Center
Fri 07:16:14 PM 57.3333 -149.8333 110° East 520 598 33,000  Level Anchorage Center
Fri 07:17:14 PM 57.3000 -149.5667 103° East 530 610 33,000  Level Anchorage Center
Fri 07:18:15 PM 57.2667 -149.3667 107° East 510 587 33,000  Level Anchorage Center
Fri 07:19:14 PM 57.2000 -149.0667 112° Southeast 520 598 33,000  Level Anchorage Center
Fri 07:20:14 PM 57.1667 -148.8000 103° East 520 598 33,000  Level Anchorage Center
Fri 07:21:15 PM 57.1167 -148.5333 109° East 530 610 33,000  Level Anchorage Center
Fri 07:22:15 PM 57.0667 -148.2833 110° East 520 598 33,000  Level Anchorage Center
Fri 07:23:15 PM 57.0167 -148.0333 110° East 520 598 33,000  Level Anchorage Center
Fri 07:24:15 PM 56.9667 -147.7833 110° East 520 598 33,000  Level Anchorage Center
Fri 07:25:15 PM 56.9333 -147.5167 103° East 520 598 33,000  Level Anchorage Center
Fri 07:26:15 PM 56.8833 -147.2667 110° East 520 598 33,000  Level Anchorage Center
Fri 07:27:15 PM 56.8333 -147.0167 110° East 520 598 33,000  Level Anchorage Center
Fri 07:28:15 PM 56.7833 -146.7667 110° East 530 610 33,000  Level Anchorage Center
Fri 07:29:15 PM 56.7333 -146.5167 110° East 520 598 33,000  Level Anchorage Center
Fri 07:30:16 PM 56.6833 -146.2667 110° East 530 610 33,000  Level Anchorage Center
Fri 07:31:15 PM 56.6333 -146.0167 110° East 520 598 33,000  Level Anchorage Center
Fri 07:32:16 PM 56.5667 -145.7667 116° Southeast 530 610 33,000  Level Anchorage Center
Fri 07:33:16 PM 56.5167 -145.5167 110° East 530 610 33,000  Level Anchorage Center
Fri 07:34:16 PM 56.4667 -145.2667 110° East 530 610 33,000  Level Anchorage Center
Fri 07:35:16 PM 56.4167 -145.0000 109° East 530 610 33,000  Level Anchorage Center
Fri 07:36:16 PM 56.3667 -144.7500 110° East 530 610 33,000  Level Anchorage Center
Fri 07:37:16 PM 56.3000 -144.5000 116° Southeast 530 610 33,000  Level Anchorage Center
Fri 07:38:16 PM 56.2500 -144.2500 110° East 530 610 33,000  Level Anchorage Center
Fri 07:40:16 PM 56.1333 -143.7500 113° Southeast 540 621 33,000  Level Anchorage Center
Fri 07:41:16 PM 56.0667 -143.5000 115° Southeast 540 621 33,000  Level Anchorage Center
Fri 07:44:00 PM 55.9689 -143.0861 113° Southeast  Level FlightAware Approximate
Fri 07:47:32 PM 55.7000 -141.9333 114° Southeast 540 621 33,000  Level Anchorage Center
Fri 07:48:32 PM 55.6333 -141.6833 115° Southeast 550 633 33,000  Level Anchorage Center
Fri 07:49:32 PM 55.5667 -141.4333 115° Southeast 550 633 33,000  Level Anchorage Center
Fri 07:50:32 PM 55.5000 -141.1833 115° Southeast 550 633 33,000  Level Anchorage Center
Fri 07:51:00 PM 55.5600 -141.4362 113° Southeast  Level FlightAware Approximate
Fri 07:51:32 PM 55.4333 -140.9333 115° Southeast 550 633 33,000  Level Anchorage Center
Fri 07:52:00 PM 55.4998 -141.2034 114° Southeast  Level FlightAware Approximate
Fri 07:52:32 PM 55.3833 -140.7500 116° Southeast 540 621 33,000  Level Anchorage Center
Fri 07:53:32 PM 55.3167 -140.4500 111° Southeast 540 621 33,000  Level Anchorage Center
Fri 07:54:32 PM 55.2500 -140.2167 117° Southeast 550 633 33,000  Level Anchorage Center
Fri 07:55:32 PM 55.1833 -139.9667 115° Southeast 560 644 33,000  Level Anchorage Center
Fri 07:56:32 PM 55.1167 -139.7333 116° Southeast 550 633 33,000  Level Anchorage Center
Fri 07:57:09 PM 55.0667 -139.6667 143° Southeast 550 633 33,000  Level Vancouver Center
Fri 07:57:32 PM 55.0500 -139.4833 99° East 540 621 33,000  Level Anchorage Center
Fri 07:58:33 PM 54.9667 -139.2333 120° Southeast 560 644 33,000  Level Anchorage Center
Fri 07:59:32 PM 54.9000 -139.0000 116° Southeast 550 633 33,000  Level Anchorage Center
Fri 08:00:09 PM 54.8667 -138.9500 139° Southeast 550 633 33,000  Level Vancouver Center
Fri 08:00:33 PM 54.8333 -138.7667 107° East 550 633 33,000  Level Anchorage Center
Fri 08:01:33 PM 54.7667 -138.5333 116° Southeast 550 633 33,000  Level Anchorage Center
Fri 08:02:09 PM 54.7167 -138.4500 136° Southeast 550 633 33,000  Level Vancouver Center
Fri 08:03:09 PM 54.6667 -138.2333 112° Southeast 560 644 33,000  Level Vancouver Center
Fri 08:03:33 PM 54.6333 -138.0667 109° East 540 621 33,000  Level Anchorage Center
Fri 08:04:09 PM 54.5833 -138.0000 142° Southeast 550 633 33,000  Level Vancouver Center
Fri 08:05:09 PM 54.5167 -137.7667 116° Southeast 550 633 33,000  Level Vancouver Center
Fri 08:06:09 PM 54.4333 -137.5167 120° Southeast 550 633 33,000  Level Vancouver Center
Fri 08:06:33 PM 54.4167 -137.3667 101° East 550 633 33,000  Level Anchorage Center
Fri 08:07:34 PM 54.3500 -137.1333 116° Southeast 550 633 33,000  Level Anchorage Center
Fri 08:08:09 PM 54.3000 -137.0667 142° Southeast 560 644 33,000  Level Vancouver Center
Fri 08:09:09 PM 54.2333 -136.8333 116° Southeast 550 633 33,000  Level Vancouver Center
Fri 08:10:09 PM 54.1667 -136.6167 118° Southeast 550 633 33,000  Level Vancouver Center
Fri 08:10:33 PM 54.1333 -136.4333 107° East 560 644 33,000  Level Anchorage Center
Fri 08:11:09 PM 54.0833 -136.3667 142° Southeast 560 644 33,000  Level Vancouver Center
Fri 08:12:09 PM 54.0000 -136.1333 121° Southeast 550 633 33,000  Level Vancouver Center
Fri 08:12:34 PM 53.9833 -135.9667 100° East 540 621 33,000  Level Anchorage Center
Fri 08:13:34 PM 53.9167 -135.7333 116° Southeast 550 633 33,000  Level Anchorage Center
Fri 08:14:34 PM 53.8500 -135.5000 116° Southeast 550 633 33,000  Level Anchorage Center
Fri 08:15:34 PM 53.8000 -135.2667 110° East 550 633 33,000  Level Anchorage Center
Fri 08:16:09 PM 53.7500 -135.1833 135° Southeast 560 644 33,000  Level Vancouver Center
Fri 08:16:34 PM 53.7333 -135.0167 100° East 550 633 33,000  Level Anchorage Center
Fri 08:18:09 PM 53.6167 -134.6833 120° Southeast 560 644 33,000  Level Vancouver Center
Fri 08:19:09 PM 53.5500 -134.4667 117° Southeast 560 644 33,000  Level Vancouver Center
Fri 08:20:09 PM 53.4833 -134.2333 116° Southeast 560 644 33,000  Level Vancouver Center
Fri 08:21:09 PM 53.4167 -133.9833 114° Southeast 560 644 33,000  Level Vancouver Center
Fri 08:22:09 PM 53.3500 -133.7667 117° Southeast 560 644 33,000  Level Vancouver Center
Fri 08:23:09 PM 53.2833 -133.5333 115° Southeast 560 644 33,000  Level Vancouver Center
Fri 08:24:09 PM 53.2167 -133.3000 115° Southeast 560 644 33,000  Level Vancouver Center
Fri 08:25:09 PM 53.1500 -133.0500 114° Southeast 560 644 33,000  Level Vancouver Center
Fri 08:26:09 PM 53.0833 -132.8500 119° Southeast 560 644 33,000  Level Vancouver Center
Fri 08:27:09 PM 53.0167 -132.6000 114° Southeast 560 644 33,000  Level Vancouver Center
Fri 08:28:09 PM 52.9500 -132.3667 115° Southeast 560 644 33,000  Level Vancouver Center
Fri 08:29:09 PM 52.8667 -132.1333 121° Southeast 560 644 33,000  Level Vancouver Center
Fri 08:30:09 PM 52.8000 -131.9333 119° Southeast 560 644 33,000  Level Vancouver Center
Fri 08:31:09 PM 52.7333 -131.7000 115° Southeast 560 644 33,000  Level Vancouver Center
Fri 08:32:09 PM 52.6667 -131.4667 115° Southeast 560 644 33,000  Level Vancouver Center
Fri 08:33:09 PM 52.5833 -131.2167 119° Southeast 560 644 33,000  Level Vancouver Center
Fri 08:34:09 PM 52.5167 -131.0167 119° Southeast 560 644 33,000  Level Vancouver Center
Fri 08:35:09 PM 52.4333 -130.7833 120° Southeast 560 644 33,000  Level Vancouver Center
Fri 08:36:09 PM 52.3667 -130.5500 115° Southeast 560 644 33,000  Level Vancouver Center
Fri 08:37:09 PM 52.3000 -130.3500 119° Southeast 560 644 33,000  Level Vancouver Center
Fri 08:38:09 PM 52.2167 -130.1167 120° Southeast 560 644 33,000  Level Vancouver Center
Fri 08:39:09 PM 52.1333 -129.9000 122° Southeast 560 644 33,000  Level Vancouver Center
Fri 08:40:09 PM 52.0667 -129.6667 115° Southeast 560 644 33,000  Level Vancouver Center
Fri 08:41:09 PM 52.0000 -129.4333 115° Southeast 560 644 33,000  Level Vancouver Center
Fri 08:42:09 PM 51.9167 -129.2167 122° Southeast 570 656 33,000  Level Vancouver Center
Fri 08:43:09 PM 51.8333 -128.9833 120° Southeast 570 656 33,000 700 Level Vancouver Center
Fri 08:44:09 PM 51.7500 -128.7833 124° Southeast 570 656 34,400 1,000 Climbing Vancouver Center
Fri 08:45:09 PM 51.6833 -128.5667 116° Southeast 560 644 35,000 300 Climbing Vancouver Center
Fri 08:46:09 PM 51.6000 -128.3500 122° Southeast 560 644 35,000  Level Vancouver Center
Fri 08:47:09 PM 51.5167 -128.1167 120° Southeast 560 644 35,000  Level Vancouver Center
Fri 08:48:09 PM 51.4333 -127.9000 122° Southeast 560 644 35,000  Level Vancouver Center
Fri 08:49:09 PM 51.3667 -127.7000 118° Southeast 560 644 35,000  Level Vancouver Center
Fri 08:50:09 PM 51.2833 -127.4833 122° Southeast 560 644 35,000  Level Vancouver Center
Fri 08:51:09 PM 51.2000 -127.2667 121° Southeast 560 644 35,000  Level Vancouver Center
Fri 08:52:09 PM 51.1333 -127.0667 118° Southeast 560 644 35,000  Level Vancouver Center
Fri 08:53:09 PM 51.0333 -126.8333 124° Southeast 560 644 35,000  Level Vancouver Center
Fri 08:54:09 PM 50.9500 -126.6333 123° Southeast 560 644 35,000  Level Vancouver Center
Fri 08:55:09 PM 50.8833 -126.4167 116° Southeast 560 644 35,000  Level Vancouver Center
Fri 08:56:09 PM 50.8000 -126.2000 121° Southeast 560 644 35,000  Level Vancouver Center
Fri 08:57:09 PM 50.7167 -126.0167 126° Southeast 560 644 35,000  Level Vancouver Center
Fri 09:02:42 PM 50.2690 -124.8590 126° Southeast 551 634 35,000  Level FlightAware ADS-B
Fri 09:03:22 PM 50.2070 -124.7100 123° Southeast 550 633 35,000  Level FlightAware ADS-B
Fri 09:04:07 PM 50.1440 -124.5600 123° Southeast 548 631 35,000  Level FlightAware ADS-B
Fri 09:05:02 PM 50.0670 -124.3770 123° Southeast 552 635 35,000  Level FlightAware ADS-B
Fri 09:05:42 PM 50.0130 -124.2490 123° Southeast 544 626 35,000  Level FlightAware ADS-B
Fri 09:06:17 PM 49.9630 -124.1320 124° Southeast 542 624 35,000  Level FlightAware ADS-B
Fri 09:07:02 PM 49.8990 -123.9820 123° Southeast 547 629 35,000  Level FlightAware ADS-B
Fri 09:07:42 PM 49.8430 -123.8520 124° Southeast 547 629 35,000  Level FlightAware ADS-B
Fri 09:08:22 PM 49.7890 -123.7260 124° Southeast 547 629 35,000  Level FlightAware ADS-B
Fri 09:09:07 PM 49.7240 -123.5760 124° Southeast 546 628 35,000  Level FlightAware ADS-B
Fri 09:09:47 PM 49.6690 -123.4490 124° Southeast 546 628 35,000  Level FlightAware ADS-B
Fri 09:10:32 PM 49.6060 -123.3070 124° Southeast 544 626 35,000  Level FlightAware ADS-B
Fri 09:11:12 PM 49.5480 -123.1760 124° Southeast 542 624 35,000  Level FlightAware ADS-B
Fri 09:11:52 PM 49.4940 -123.0530 124° Southeast 539 620 35,000  Level FlightAware ADS-B
Fri 09:12:32 PM 49.4360 -122.9220 124° Southeast 540 621 35,000  Level FlightAware ADS-B
Fri 09:13:17 PM 49.3730 -122.7810 124° Southeast 538 619 35,000  Level FlightAware ADS-B
Fri 09:13:57 PM 49.3160 -122.6550 125° Southeast 539 620 35,000  Level FlightAware ADS-B
Fri 09:14:47 PM 49.2500 -122.5090 125° Southeast 539 620 35,000  Level FlightAware ADS-B
Fri 09:15:27 PM 49.1920 -122.3800 124° Southeast 537 618 35,000  Level FlightAware ADS-B
Fri 09:15:57 PM 49.1450 -122.2770 125° Southeast 536 617 35,000  Level FlightAware ADS-B
Fri 09:17:47 PM 48.9930 -121.9470 125° Southeast 536 617 35,000  Level FlightAware ADS-B
Fri 09:18:57 PM 48.8930 -121.7320 125° Southeast 534 615 35,000  Level FlightAware ADS-B
Fri 09:20:07 PM 48.7930 -121.5190 125° Southeast 533 613 35,000  Level FlightAware ADS-B
Fri 09:21:27 PM 48.6780 -121.2740 125° Southeast 531 611 35,000  Level FlightAware ADS-B
Fri 09:22:42 PM 48.5740 -121.0420 124° Southeast 529 609 35,000  Level FlightAware ADS-B
Fri 09:23:52 PM 48.4820 -120.8200 122° Southeast 525 604 35,000  Level FlightAware ADS-B
Fri 09:25:02 PM 48.3910 -120.6080 123° Southeast 522 601 35,000  Level FlightAware ADS-B
Fri 09:26:12 PM 48.2980 -120.3920 123° Southeast 524 603 35,000  Level FlightAware ADS-B
Fri 09:27:37 PM 48.1870 -120.1390 123° Southeast 525 604 35,000  Level FlightAware ADS-B
Fri 09:28:12 PM 48.1430 -120.0370 123° Southeast 525 604 35,000  Level FlightAware ADS-B
Fri 09:28:52 PM 48.0980 -119.9340 123° Southeast 525 604 35,000  Level FlightAware ADS-B
Fri 09:29:42 PM 48.0420 -119.8040 123° Southeast 525 604 35,000  Level FlightAware ADS-B
Fri 09:30:22 PM 47.9970 -119.7010 123° Southeast 525 604 35,000  Level FlightAware ADS-B
Fri 09:31:02 PM 47.9520 -119.5970 123° Southeast 525 604 35,000  Level FlightAware ADS-B
Fri 09:31:42 PM 47.9070 -119.4940 123° Southeast 525 604 35,000  Level FlightAware ADS-B
Fri 09:32:22 PM 47.8620 -119.3910 123° Southeast 525 604 35,000  Level FlightAware ADS-B
Fri 09:33:12 PM 47.8060 -119.2620 123° Southeast 525 604 35,000  Level FlightAware ADS-B
Fri 09:33:52 PM 47.7610 -119.1580 123° Southeast 525 604 35,000  Level FlightAware ADS-B
Fri 09:34:32 PM 47.7160 -119.0560 123° Southeast 525 604 35,000  Level FlightAware ADS-B
Fri 09:35:12 PM 47.6710 -118.9530 123° Southeast 525 604 35,000  Level FlightAware ADS-B
Fri 09:35:52 PM 47.6260 -118.8500 123° Southeast 525 604 35,000  Level FlightAware ADS-B
Fri 09:36:42 PM 47.5700 -118.7210 123° Southeast 525 604 35,000  Level FlightAware ADS-B
Fri 09:37:22 PM 47.5250 -118.6190 123° Southeast 525 604 35,000  Level FlightAware ADS-B
Fri 09:37:51 PM 47.3656 -118.3042 123° Southeast 526 605 35,000  Level Salt Lake Center
Fri 09:38:16 PM 47.3328 -118.2336 124° Southeast 526 605 35,000  Level Seattle Center
Fri 09:39:17 PM 47.2514 -118.0589 124° Southeast 522 601 35,000  Level Seattle Center
Fri 09:40:18 PM 47.1536 -117.8500 124° Southeast 521 600 35,000  Level Seattle Center
Fri 09:41:19 PM 47.0747 -117.6769 124° Southeast 517 595 35,000  Level Seattle Center
Fri 09:42:19 PM 47.0083 -117.4908 118° Southeast 519 597 35,000  Level Seattle Center
Fri 09:43:20 PM 46.9467 -117.3053 116° Southeast 515 593 35,000  Level Seattle Center
Fri 09:44:21 PM 46.8839 -117.1200 116° Southeast 514 592 35,000  Level Seattle Center
Fri 09:45:22 PM 46.8203 -116.9322 116° Southeast 517 595 35,000  Level Seattle Center
Fri 09:46:22 PM 46.7578 -116.7425 116° Southeast 522 601 35,000  Level Seattle Center
Fri 09:47:23 PM 46.6947 -116.5583 116° Southeast 514 592 35,000  Level Seattle Center
Fri 09:48:24 PM 46.6311 -116.3750 117° Southeast 511 588 35,000  Level Seattle Center
Fri 09:49:24 PM 46.5669 -116.1911 117° Southeast 512 589 35,000  Level Seattle Center
Fri 09:50:25 PM 46.5028 -116.0067 117° Southeast 513 590 35,000  Level Seattle Center
Fri 09:51:26 PM 46.4394 -115.8272 117° Southeast 506 582 35,000  Level Seattle Center
Fri 09:52:26 PM 46.3747 -115.6422 117° Southeast 513 590 35,000  Level Seattle Center
Fri 09:53:27 PM 46.2972 -115.4214 117° Southeast 515 593 35,000  Level Seattle Center
Fri 09:54:14 PM 46.2575 -115.3133 118° Southeast 514 592 35,000  Level Salt Lake Center
Fri 09:55:16 PM 46.1864 -115.1136 117° Southeast 512 589 35,000  Level Salt Lake Center
Fri 09:56:17 PM 46.1217 -114.9342 117° Southeast 509 586 35,000  Level Salt Lake Center
Fri 09:57:19 PM 46.0469 -114.7292 118° Southeast 510 587 35,000 146 Level Salt Lake Center
Fri 09:58:20 PM 45.9839 -114.5561 118° Southeast 510 587 35,300 537 Climbing Salt Lake Center
Fri 09:59:22 PM 45.9119 -114.3625 118° Southeast 505 581 36,100 732 Climbing Salt Lake Center
Fri 10:00:23 PM 45.8450 -114.1806 118° Southeast 512 589 36,800 439 Climbing Salt Lake Center
Fri 10:01:25 PM 45.7761 -113.9994 119° Southeast 519 597 37,000 98 Climbing Salt Lake Center
Fri 10:02:26 PM 45.7092 -113.8186 118° Southeast 516 594 37,000  Level Salt Lake Center
Fri 10:03:28 PM 45.6411 -113.6406 119° Southeast 513 590 37,000  Level Salt Lake Center
Fri 10:04:30 PM 45.5725 -113.4597 118° Southeast 518 596 37,000  Level Salt Lake Center
Fri 10:05:31 PM 45.4894 -113.2450 119° Southeast 517 595 37,000  Level Salt Lake Center
Fri 10:06:33 PM 45.4211 -113.0694 119° Southeast 511 588 37,000  Level Salt Lake Center
Fri 10:07:34 PM 45.3536 -112.8942 119° Southeast 507 583 37,000  Level Salt Lake Center
Fri 10:08:36 PM 45.2875 -112.7222 119° Southeast 514 592 37,000  Level Salt Lake Center
Fri 10:09:37 PM 45.2092 -112.5233 119° Southeast 518 596 37,000  Level Salt Lake Center
Fri 10:10:39 PM 45.1411 -112.3564 120° Southeast 513 590 37,000  Level Salt Lake Center
Fri 10:11:40 PM 45.0642 -112.1619 119° Southeast 509 586 37,000  Level Salt Lake Center
Fri 10:12:42 PM 44.9972 -111.9964 120° Southeast 507 583 37,000  Level Salt Lake Center
Fri 10:13:43 PM 44.9219 -111.8381 124° Southeast 506 582 37,000  Level Salt Lake Center
Fri 10:14:45 PM 44.8317 -111.6542 125° Southeast 509 586 37,000  Level Salt Lake Center
Fri 10:15:46 PM 44.7539 -111.4964 125° Southeast 509 586 37,000  Level Salt Lake Center
Fri 10:16:48 PM 44.6744 -111.3381 125° Southeast 509 586 37,000  Level Salt Lake Center
Fri 10:17:49 PM 44.5839 -111.1531 124° Southeast 506 582 37,000  Level Salt Lake Center
Fri 10:18:51 PM 44.5058 -110.9944 125° Southeast 511 588 37,000  Level Salt Lake Center
Fri 10:19:52 PM 44.4269 -110.8369 125° Southeast 513 590 37,000  Level Salt Lake Center
Fri 10:20:54 PM 44.3342 -110.6550 125° Southeast 515 593 37,000  Level Salt Lake Center
Fri 10:21:56 PM 44.2550 -110.4983 125° Southeast 514 592 37,000  Level Salt Lake Center
Fri 10:22:57 PM 44.1617 -110.3156 125° Southeast 518 596 37,000  Level Salt Lake Center
Fri 10:23:59 PM 44.0817 -110.1606 126° Southeast 516 594 37,000  Level Salt Lake Center
Fri 10:25:01 PM 44.0011 -110.0047 126° Southeast 519 597 37,000  Level Salt Lake Center
Fri 10:26:02 PM 43.9122 -109.8206 124° Southeast 516 594 37,000  Level Salt Lake Center
Fri 10:27:04 PM 43.8369 -109.6642 124° Southeast 511 588 37,000  Level Salt Lake Center
Fri 10:28:05 PM 43.7467 -109.4819 124° Southeast 513 590 37,000  Level Salt Lake Center
Fri 10:29:07 PM 43.6722 -109.3314 124° Southeast 508 585 37,000  Level Salt Lake Center
Fri 10:30:09 PM 43.5817 -109.1486 124° Southeast 516 594 37,000  Level Salt Lake Center
Fri 10:31:10 PM 43.5033 -108.9925 125° Southeast 519 597 37,000  Level Salt Lake Center
Fri 10:32:12 PM 43.4108 -108.8094 125° Southeast 521 600 37,000  Level Salt Lake Center
Fri 10:33:14 PM 43.3328 -108.6522 124° Southeast 520 598 37,000  Level Salt Lake Center
Fri 10:34:16 PM 43.2400 -108.4719 125° Southeast 519 597 37,000  Level Salt Lake Center
Fri 10:35:17 PM 43.1619 -108.3158 124° Southeast 519 597 37,000  Level Salt Lake Center
Fri 10:36:19 PM 43.0825 -108.1622 125° Southeast 517 595 37,000  Level Salt Lake Center
Fri 10:37:21 PM 42.9911 -107.9831 125° Southeast 516 594 37,000  Level Salt Lake Center
Fri 10:38:22 PM 42.9078 -107.8097 123° Southeast 515 593 37,000  Level Salt Lake Center
Fri 10:39:24 PM 42.8317 -107.6528 123° Southeast 516 594 37,000  Level Salt Lake Center
Fri 10:40:26 PM 42.7425 -107.4706 124° Southeast 517 595 37,000  Level Salt Lake Center
Fri 10:41:27 PM 42.6650 -107.3144 124° Southeast 519 597 37,000  Level Salt Lake Center
Fri 10:47:07 PM 42.1960 -106.3810 124° Southeast 526 605 37,000  Level FlightAware ADS-B
Fri 10:48:02 PM 42.1280 -106.2460 124° Southeast 526 605 37,000  Level FlightAware ADS-B
Fri 10:48:37 PM 42.0760 -106.1450 125° Southeast 524 603 37,000  Level FlightAware ADS-B
Fri 10:49:27 PM 42.0180 -106.0300 124° Southeast 524 603 37,000  Level FlightAware ADS-B
Fri 10:50:07 PM 41.9490 -105.8960 125° Southeast 524 603 37,000  Level FlightAware ADS-B
Fri 10:50:52 PM 41.8920 -105.7770 123° Southeast 522 601 37,000  Level FlightAware ADS-B
Fri 10:51:32 PM 41.8430 -105.6720 122° Southeast 522 601 37,000  Level FlightAware ADS-B
Fri 10:52:17 PM 41.7780 -105.5450 124° Southeast 525 604 37,000  Level FlightAware ADS-B
Fri 10:52:57 PM 41.7250 -105.4360 123° Southeast 522 601 37,000  Level FlightAware ADS-B
Fri 10:53:52 PM 41.6560 -105.2950 123° Southeast 522 601 37,000  Level FlightAware ADS-B
Fri 10:54:32 PM 41.6110 -105.2020 123° Southeast 522 601 37,000  Level FlightAware ADS-B
Fri 10:55:14 PM 41.5385 -105.0610 124° Southeast 521 600 37,000  Level FlightAware ADS-B
Fri 10:55:44 PM 41.4986 -104.9810 124° Southeast 521 600 37,000  Level FlightAware ADS-B
Fri 10:56:14 PM 41.4579 -104.9000 124° Southeast 523 602 37,000  Level FlightAware ADS-B
Fri 10:56:47 PM 41.4129 -104.8100 124° Southeast 523 602 37,000  Level FlightAware ADS-B
Fri 10:57:18 PM 41.3722 -104.7290 124° Southeast 521 600 37,000  Level FlightAware ADS-B
Fri 10:57:51 PM 41.3278 -104.6410 124° Southeast 517 595 37,000  Level FlightAware ADS-B
Fri 10:58:22 PM 41.2862 -104.5590 124° Southeast 516 594 37,000  Level FlightAware ADS-B
Fri 10:58:53 PM 41.2455 -104.4790 124° Southeast 514 592 37,000  Level FlightAware ADS-B
Fri 10:59:23 PM 41.2051 -104.3990 124° Southeast 513 590 37,000  Level FlightAware ADS-B
Fri 10:59:54 PM 41.1646 -104.3200 124° Southeast 512 589 37,000  Level FlightAware ADS-B
Fri 11:00:24 PM 41.1246 -104.2420 124° Southeast 513 590 37,000  Level FlightAware ADS-B
Fri 11:00:54 PM 41.0841 -104.1630 124° Southeast 515 593 37,000  Level FlightAware ADS-B
Fri 11:01:24 PM 41.0434 -104.0840 124° Southeast 517 595 37,000  Level FlightAware ADS-B
Fri 11:01:55 PM 41.0026 -104.0050 124° Southeast 518 596 37,000  Level FlightAware ADS-B
Fri 11:02:25 PM 40.9624 -103.9240 123° Southeast 519 597 37,000  Level FlightAware ADS-B
Fri 11:02:56 PM 40.9232 -103.8430 123° Southeast 520 598 37,000  Level FlightAware ADS-B
Fri 11:03:26 PM 40.8842 -103.7620 122° Southeast 522 601 37,000  Level FlightAware ADS-B
Fri 11:03:57 PM 40.8434 -103.6780 123° Southeast 522 601 37,000  Level FlightAware ADS-B
Fri 11:04:27 PM 40.8040 -103.5970 123° Southeast 521 600 37,000  Level FlightAware ADS-B
Fri 11:04:58 PM 40.7642 -103.5160 123° Southeast 522 601 37,000  Level FlightAware ADS-B
Fri 11:05:28 PM 40.7246 -103.4360 123° Southeast 523 602 37,000  Level FlightAware ADS-B
Fri 11:05:58 PM 40.6848 -103.3550 123° Southeast 524 603 37,000  Level FlightAware ADS-B
Fri 11:06:30 PM 40.6418 -103.2680 123° Southeast 524 603 37,000  Level FlightAware ADS-B
Fri 11:07:00 PM 40.6019 -103.1880 123° Southeast 523 602 37,000  Level FlightAware ADS-B
Fri 11:07:31 PM 40.5614 -103.1070 123° Southeast 523 602 37,000  Level FlightAware ADS-B
Fri 11:08:01 PM 40.5210 -103.0260 123° Southeast 524 603 37,000  Level FlightAware ADS-B
Fri 11:08:32 PM 40.4802 -102.9440 123° Southeast 524 603 37,000  Level FlightAware ADS-B
Fri 11:09:03 PM 40.4394 -102.8630 123° Southeast 523 602 37,000  Level FlightAware ADS-B
Fri 11:09:34 PM 40.3978 -102.7810 124° Southeast 524 603 37,000  Level FlightAware ADS-B
Fri 11:10:05 PM 40.3567 -102.6990 123° Southeast 525 604 37,000  Level FlightAware ADS-B
Fri 11:10:35 PM 40.3159 -102.6180 123° Southeast 525 604 37,000  Level FlightAware ADS-B
Fri 11:11:06 PM 40.2743 -102.5360 124° Southeast 524 603 37,000  Level FlightAware ADS-B
Fri 11:11:36 PM 40.2339 -102.4560 123° Southeast 523 602 37,000  Level FlightAware ADS-B
Fri 11:12:07 PM 40.1933 -102.3770 124° Southeast 522 601 37,000  Level FlightAware ADS-B
Fri 11:12:37 PM 40.1528 -102.2970 124° Southeast 521 600 37,000  Level FlightAware ADS-B
Fri 11:13:08 PM 40.1119 -102.2180 124° Southeast 520 598 37,000  Level FlightAware ADS-B
Fri 11:13:38 PM 40.0719 -102.1400 124° Southeast 519 597 37,000  Level FlightAware ADS-B
Fri 11:14:08 PM 40.0315 -102.0610 124° Southeast 519 597 37,000  Level FlightAware ADS-B
Fri 11:14:39 PM 39.9888 -101.9820 125° Southeast 520 598 37,000  Level FlightAware ADS-B
Fri 11:15:09 PM 39.9449 -101.9070 127° Southeast 520 598 37,000  Level FlightAware ADS-B
Fri 11:15:40 PM 39.8996 -101.8310 128° Southeast 520 598 37,000  Level FlightAware ADS-B
Fri 11:18:53 PM 39.6132 -101.3540 128° Southeast 519 597 37,000  Level FlightAware ADS-B
Fri 11:19:23 PM 39.5684 -101.2800 128° Southeast 520 598 37,000  Level FlightAware ADS-B
Fri 11:19:53 PM 39.5235 -101.2060 128° Southeast 520 598 37,000  Level FlightAware ADS-B
Fri 11:20:28 PM 39.4721 -101.1210 128° Southeast 519 597 37,000  Level FlightAware ADS-B
Fri 11:20:51 PM 39.4481 -101.0817 128° Southeast 520 598 37,000  Level Kansas City Center
Fri 11:21:52 PM 39.3628 -100.9411 128° Southeast 519 597 37,000  Level Kansas City Center
Fri 11:22:51 PM 39.2633 -100.7772 128° Southeast 518 596 37,000  Level Kansas City Center
Fri 11:23:53 PM 39.1836 -100.6297 125° Southeast 520 598 37,000  Level Kansas City Center
Fri 11:24:53 PM 39.1017 -100.4828 126° Southeast 524 603 37,000  Level Kansas City Center
Fri 11:26:00 PM 39.0100 -100.3231 126° Southeast 517 595 37,000  Level Denver Center
Fri 11:27:01 PM 38.9119 -100.1531 127° Southeast 517 595 37,000  Level Denver Center
Fri 11:28:03 PM 38.8300 -100.0111 127° Southeast 516 594 37,000  Level Denver Center
Fri 11:29:04 PM 38.7483 -99.8678 126° Southeast 518 596 37,000  Level Denver Center
Fri 11:30:05 PM 38.6781 -99.7478 127° Southeast 524 603 37,000  Level Denver Center
Fri 11:30:59 PM 38.5853 -99.5708 124° Southeast 528 608 37,000  Level Kansas City Center
Fri 11:32:00 PM 38.5225 -99.4206 118° Southeast 533 613 37,000  Level Kansas City Center
Fri 11:32:59 PM 38.4392 -99.2214 118° Southeast 532 612 37,000  Level Kansas City Center
Fri 11:34:02 PM 38.3689 -99.0578 119° Southeast 528 608 37,000  Level Kansas City Center
Fri 11:40:07 PM 38.0060 -98.2300 119° Southeast 522 601 37,000  Level FlightAware ADS-B
Fri 11:40:42 PM 37.8850 -97.9860 122° Southeast 521 600 37,000  Level FlightAware ADS-B
Fri 11:41:22 PM 37.8320 -97.8800 122° Southeast 521 600 37,000  Level FlightAware ADS-B
Fri 11:42:02 PM 37.7830 -97.7800 122° Southeast 522 601 37,000  Level FlightAware ADS-B
Fri 11:42:47 PM 37.7240 -97.6610 122° Southeast 525 604 37,000  Level FlightAware ADS-B
Fri 11:43:27 PM 37.6730 -97.5600 123° Southeast 527 606 37,000  Level FlightAware ADS-B
Fri 11:44:07 PM 37.6230 -97.4600 122° Southeast 526 605 37,000  Level FlightAware ADS-B
Fri 11:44:52 PM 37.5610 -97.3380 123° Southeast 525 604 37,000  Level FlightAware ADS-B
Fri 11:45:32 PM 37.5120 -97.2330 120° Southeast 526 605 37,000  Level FlightAware ADS-B
Fri 11:46:17 PM 37.4630 -97.1100 117° Southeast 531 611 37,000  Level FlightAware ADS-B
Fri 11:46:57 PM 37.4210 -97.0010 116° Southeast 532 612 37,000  Level FlightAware ADS-B
Fri 11:47:42 PM 37.3720 -96.8750 116° Southeast 534 615 37,000  Level FlightAware ADS-B
Fri 11:48:22 PM 37.3310 -96.7700 116° Southeast 533 613 37,000  Level FlightAware ADS-B
Fri 11:49:07 PM 37.2830 -96.6500 117° Southeast 532 612 37,000  Level FlightAware ADS-B
Fri 11:49:52 PM 37.2330 -96.5230 116° Southeast 533 613 37,000  Level FlightAware ADS-B
Fri 11:50:32 PM 37.1930 -96.4190 116° Southeast 533 613 37,000  Level FlightAware ADS-B
Fri 11:51:02 PM 37.1650 -96.3480 116° Southeast 533 613 37,000  Level FlightAware ADS-B
Fri 11:51:42 PM 37.1280 -96.2530 116° Southeast 533 613 37,000  Level FlightAware ADS-B
Fri 11:52:22 PM 37.0920 -96.1590 116° Southeast 533 613 37,000  Level FlightAware ADS-B
Fri 11:53:02 PM 37.0550 -96.0640 116° Southeast 533 613 37,000  Level FlightAware ADS-B
Fri 11:53:52 PM 37.0090 -95.9460 116° Southeast 533 613 37,000  Level FlightAware ADS-B
Fri 11:54:32 PM 36.9720 -95.8520 116° Southeast 533 613 37,000  Level FlightAware ADS-B
Fri 11:55:12 PM 36.9350 -95.7580 116° Southeast 533 613 37,000  Level FlightAware ADS-B
Fri 11:55:52 PM 36.8990 -95.6630 115° Southeast 533 613 37,000  Level FlightAware ADS-B
Fri 11:56:32 PM 36.8620 -95.5690 116° Southeast 533 613 37,000  Level FlightAware ADS-B
Fri 11:57:22 PM 36.8160 -95.4520 116° Southeast 533 613 37,000  Level FlightAware ADS-B
Fri 11:58:02 PM 36.7790 -95.3570 116° Southeast 533 613 37,000  Level FlightAware ADS-B
Fri 11:58:42 PM 36.7420 -95.2630 116° Southeast 533 613 37,000  Level FlightAware ADS-B
Fri 11:59:22 PM 36.7060 -95.1690 116° Southeast 533 613 37,000  Level FlightAware ADS-B
Sat 12:00:17 AM 36.5417 -94.8200 116° Southeast 537 618 37,000  Level Memphis Center
Sat 12:01:17 AM 36.4742 -94.6589 117° Southeast 531 611 37,000  Level Memphis Center
Sat 12:02:17 AM 36.4047 -94.4953 118° Southeast 531 611 37,000  Level Memphis Center
Sat 12:03:17 AM 36.3350 -94.3347 118° Southeast 536 617 37,000  Level Memphis Center
Sat 12:04:17 AM 36.2672 -94.1717 117° Southeast 536 617 37,000  Level Memphis Center
Sat 12:05:17 AM 36.2244 -93.9947 107° East 525 604 37,000  Level Memphis Center
Sat 12:06:17 AM 36.1964 -93.8108 101° East 530 610 37,000  Level Memphis Center
Sat 12:07:17 AM 36.1558 -93.6114 104° East 535 616 37,000  Level Memphis Center
Sat 12:08:17 AM 36.1308 -93.4511 101° East 535 616 37,000  Level Memphis Center
Sat 12:09:17 AM 36.0975 -93.2700 103° East 528 608 37,000 -100 Level Memphis Center
Sat 12:10:17 AM 36.0664 -93.0864 102° East 533 613 36,800 -500 Descending Memphis Center
Sat 12:11:17 AM 36.0347 -92.9058 102° East 525 604 36,000 -400 Descending Memphis Center
Sat 12:12:17 AM 36.0008 -92.7225 103° East 537 618 36,000  Level Memphis Center
Sat 12:13:17 AM 35.9686 -92.5394 102° East 537 618 36,000 -450 Level Memphis Center
Sat 12:14:17 AM 35.9342 -92.3592 103° East 542 624 35,100 -1,700 Descending Memphis Center
Sat 12:15:17 AM 35.9014 -92.1764 102° East 542 624 32,600 -2,600 Descending Memphis Center
Sat 12:16:17 AM 35.8683 -91.9989 103° East 542 624 29,900 -2,450 Descending Memphis Center
Sat 12:17:17 AM 35.8353 -91.8242 103° East 530 610 27,700 -2,150 Descending Memphis Center
Sat 12:18:17 AM 35.7892 -91.6597 109° East 519 597 25,600 -2,100 Descending Memphis Center
Sat 12:19:17 AM 35.7342 -91.5053 114° Southeast 508 585 23,500 -1,550 Descending Memphis Center
Sat 12:20:17 AM 35.6750 -91.3461 115° Southeast 473 544 22,500 -1,400 Descending Memphis Center
Sat 12:21:17 AM 35.6239 -91.2075 114° Southeast 451 519 20,700 -1,750 Descending Memphis Center
Sat 12:22:17 AM 35.5747 -91.0742 114° Southeast 433 498 19,000 -1,650 Descending Memphis Center
Sat 12:23:17 AM 35.5233 -90.9439 116° Southeast 421 484 17,400 -1,650 Descending Memphis Center
Sat 12:24:17 AM 35.4739 -90.8186 116° Southeast 416 479 15,700 -1,700 Descending Memphis Center
Sat 12:25:17 AM 35.4283 -90.6908 114° Southeast 411 473 14,000 -1,650 Descending Memphis Center
Sat 12:26:17 AM 35.3806 -90.5658 115° Southeast 406 467 12,400 -1,250 Descending Memphis Center
Sat 12:27:17 AM 35.3306 -90.4564 119° Southeast 387 445 11,500 -850 Descending Memphis Center
Sat 12:28:17 AM 35.2681 -90.3594 128° Southeast 367 422 10,700 -800 Descending Memphis Center
Sat 12:29:17 AM 35.2139 -90.2808 130° Southeast 347 399 9,900 -750 Descending Memphis Center
Sat 12:30:17 AM 35.1594 -90.1969 128° Southeast 329 379 9,200 -800 Descending Memphis Center
Sat 12:31:17 AM 35.1072 -90.1236 131° Southeast 307 353 8,300 -1,024 Descending Memphis Center
Sat 12:32:20 AM 35.0167 -90.1000 168° South 262 302 7,100 -1,073 Descending KMEM
Sat 12:33:20 AM 34.9500 -90.1000 180° South 259 298 6,100 -950 Descending KMEM
Sat 12:34:20 AM 34.8833 -90.1000 180° South 248 285 5,200 -950 Descending KMEM
Sat 12:35:20 AM 34.8167 -90.1000 180° South 242 278 4,200 -1,026 Descending KMEM
Sat 12:36:17 AM 34.7983 -90.0383 110° East 194 223 3,200 -615 Descending Memphis Center
Sat 12:37:17 AM 34.8419 -89.9878 44° Northeast 171 197 3,000 -100 Descending Memphis Center
Sat 12:38:17 AM 34.8900 -89.9850 North 153 176 3,000 -439 Level Memphis Center
Sat 12:39:20 AM 34.9333 -89.9833 North 157 181 2,100 -829 Descending KMEM
Sat 12:40:20 AM 34.9833 -89.9833 360° North 148 170 1,300 -800 Descending KMEM
Sat 12:42:00 AM 35.0333 -89.9667 12° North  Level FlightAware Approximate
Sat 12:49:00 AM 35.0424 -89.9767 12° North  Level Estimated
Sat 12:50:00 AM 35.0424 -89.9767 12° North  Level Estimated
Sat 12:51:00 AM 35.0424 -89.9767 12° North  Level Estimated
Sat 12:52:00 AM 35.0424 -89.9767 12° North  Level Estimated
Sat 12:53:00 AM 35.0424 -89.9767 12° North  Level Estimated
Sat 12:54:00 AM 35.0424 -89.9767 12° North  Level Estimated
Sat 12:55:00 AM 35.0424 -89.9767 12° North  Level Estimated
Sat 12:56:00 AM 35.0424 -89.9767 12° North  Level Estimated
Sat 12:57:00 AM 35.0424 -89.9767 12° North  Level Estimated

Login

Don't have an account? Register now (free) for customized features, flight alerts, and more!